Detalhes do Voo

Voltar

 DETALHES DO VÔO

Piloto: GLD697 Renan S. Aeronave: CARENADO PC12 GOLD 5 ANOS Distância: 291NM
Origem: SBAQ Destino: SBLO Duração: 1.24
Validação: Validado Tipo: Regular Matrícula: PR-GPE
ZFW: 3132 Block Fuel/Init FOB 254/0 Combustível em Voo 242
Passageiros: 9 Carga: 1013 Alternativo: SBBU
Hora da Decolagem: Velocidade de Cruzeiro: N0220 Nível de Voo: F220
Regra Visual: IFR ICAO da Aeronave: PC12 Unidade de Peso: Kg
Data: 29/08/2019 Observação: Rede: VATSIM
Acidentou?: Não Comentários do Validador: Pontuação do Voo 105.545

 ROTA

ROTA PUPS1A EVMIM Z22 ANSOK Z31 LON
REMARKS OPR/GOLD VIRTUAL AIRLINES PER/B RMK/FROM SBSR /PIC GLD697 /WWW.GOLDVIRTUAL.COM.BR

 PENALIDADES DO VOO

Para entender como cada item é pontuado, consulte as regras de avaliação.

Nenhuma penalidade registrada para este voo.

 ANÁLISE DO POUSO

Vento durante o pouso: 0º/0 kt Proa durante o pouso: 20
V/S do Pouso: -301.43 ft/min IAS do Pouso: 100.7 kt
Força G no pouso: 1.5 G Bank no pouso: 0.9
Pitch no Pouso -3 Flaps no Pouso 2
Nav Lights ON Landing Lights ON
Beacon Lights ON Strobe Lights ON

 MAPA DO VOO

 PERFIL VERTICAL DO VOO

 EVENTOS PRINCIPAIS DO VOO

DATAEVENTOIASALTITUDE
2019-08-29 14:03:17 SIM ACARS version 1.4.002338
2019-08-29 14:03:17 BOARDING02338
2019-08-29 14:03:58 STARTING ENGINE 1 02338
2019-08-29 14:06:35 TAXI TO THE RWY 102338
2019-08-29 14:08:24 FLAPS SET TO POSITION 102338
2019-08-29 14:09:43 ROLLING FOR TAKE OFF442338
2019-08-29 14:10:07 TAKE OFF1222339
2019-08-29 14:11:55 FLAPS SET TO POSITION 01464278
2019-08-29 14:11:56 GEAR UP1464305
2019-08-29 14:17:35 LIGHTS ON ABOVE 10000 ft18910500
2019-08-29 14:26:48 CRUISE16922012
2019-08-29 14:48:19 DESCEND19821699
2019-08-29 14:56:19 CRUISE14810078
2019-08-29 14:56:49 DESCEND1489714
2019-08-29 15:05:00 CLIMBING2016056
2019-08-29 15:15:30 DESCEND17710769
2019-08-29 15:24:00 GEAR DOWN1705065
2019-08-29 15:24:04 FLAPS SET TO POSITION 11675039
2019-08-29 15:24:10 FLAPS SET TO POSITION 21605025
2019-08-29 15:25:11 CRUISE1195248
2019-08-29 15:25:41 DESCEND1264786
2019-08-29 15:27:57 LANDING1011873
2019-08-29 15:28:31 TAXI TO THE GATE201872
2019-08-29 15:28:52 FLAPS SET TO POSITION 1101872
2019-08-29 15:28:53 FLAPS SET TO POSITION 0101872
2019-08-29 15:34:31 STOPPING ENGINE 1 01872

 DADOS DO ACARS

DATA IAS GS ALTITUDE COMBUSTÍVEL USADO OAT FASE DO VOO
2019-08-29 14:04:17 0 0 2338 0 10 BOARDING
2019-08-29 14:05:17 0 0 2338 1 10 BOARDING
2019-08-29 14:06:17 0 0 2338 2 10 BOARDING
2019-08-29 14:07:17 0 0 2338 2 10 TAXI TO THE RWY
2019-08-29 14:08:17 0 0 2338 3 10 TAXI TO THE RWY
2019-08-29 14:09:17 0 0 2338 4 10 TAXI TO THE RWY
2019-08-29 14:10:17 130 134 2482 8 10 CLIMBING
2019-08-29 14:11:17 145 152 3559 13 8 CLIMBING
2019-08-29 14:12:17 166 176 4620 18 5 CLIMBING
2019-08-29 14:13:17 193 208 5771 23 3 CLIMBING
2019-08-29 14:14:17 194 213 6872 28 1 CLIMBING
2019-08-29 14:15:17 193 214 7972 33 0 CLIMBING
2019-08-29 14:16:17 191 216 9073 37 -2 CLIMBING
2019-08-29 14:17:17 189 218 10171 42 -5 CLIMBING
2019-08-29 14:18:17 186 218 11267 46 -7 CLIMBING
2019-08-29 14:19:17 180 215 12495 50 -9 CLIMBING
2019-08-29 14:20:17 176 214 13891 55 -12 CLIMBING
2019-08-29 14:21:17 171 214 15285 59 -15 CLIMBING
2019-08-29 14:22:17 166 212 16679 64 -17 CLIMBING
2019-08-29 14:23:17 161 210 18068 68 -20 CLIMBING
2019-08-29 14:24:17 155 207 19459 72 -23 CLIMBING
2019-08-29 14:25:17 149 204 20848 76 -26 CLIMBING
2019-08-29 14:26:17 152 212 21972 80 -28 CLIMBING
2019-08-29 14:27:17 179 249 22006 83 -28 CRUISE
2019-08-29 14:28:17 189 262 21999 87 -28 CRUISE
2019-08-29 14:29:17 192 266 22005 91 -28 CRUISE
2019-08-29 14:30:17 194 269 22000 94 -28 CRUISE
2019-08-29 14:31:17 195 270 22000 98 -28 CRUISE
2019-08-29 14:32:17 195 271 22000 102 -28 CRUISE
2019-08-29 14:33:17 195 271 22000 105 -28 CRUISE
2019-08-29 14:34:17 194 269 21999 109 -28 CRUISE
2019-08-29 14:35:17 194 269 22000 112 -28 CRUISE
2019-08-29 14:36:17 194 269 22000 116 -28 CRUISE
2019-08-29 14:37:17 194 269 22000 120 -28 CRUISE
2019-08-29 14:38:17 194 269 22000 123 -28 CRUISE
2019-08-29 14:39:17 194 269 22000 127 -28 CRUISE
2019-08-29 14:40:17 194 269 21999 130 -28 CRUISE
2019-08-29 14:41:17 194 269 21999 134 -28 CRUISE
2019-08-29 14:42:17 194 268 22000 138 -28 CRUISE
2019-08-29 14:43:17 193 268 21999 141 -28 CRUISE
2019-08-29 14:44:17 193 268 22000 145 -28 CRUISE
2019-08-29 14:45:17 193 268 21999 148 -28 CRUISE
2019-08-29 14:46:17 193 267 22002 152 -28 CRUISE
2019-08-29 14:47:17 192 266 21999 155 -28 CRUISE
2019-08-29 14:48:17 197 272 21722 159 -27 CRUISE
2019-08-29 14:49:17 191 259 20811 161 -26 DESCEND
2019-08-29 14:50:17 184 246 19656 162 -23 DESCEND
2019-08-29 14:51:17 183 238 18192 163 -21 DESCEND
2019-08-29 14:52:18 185 235 16634 164 -17 DESCEND
2019-08-29 14:53:17 186 228 14645 164 -13 DESCEND
2019-08-29 14:54:17 188 224 12649 165 -10 DESCEND
2019-08-29 14:55:17 190 219 10654 165 -6 DESCEND
2019-08-29 14:56:17 149 172 10080 166 -4 DESCEND
2019-08-29 14:57:17 149 170 9399 166 -3 DESCEND
2019-08-29 14:58:17 180 203 8833 169 -2 DESCEND
2019-08-29 14:59:18 203 227 8352 172 -1 DESCEND
2019-08-29 15:00:18 224 248 7868 175 0 DESCEND
2019-08-29 15:01:18 228 251 7372 179 0 DESCEND
2019-08-29 15:02:18 230 251 6873 183 1 DESCEND
2019-08-29 15:03:18 231 249 6375 187 2 DESCEND
2019-08-29 15:04:18 227 244 5882 190 3 DESCEND
2019-08-29 15:05:18 194 210 6196 193 2 CLIMBING
2019-08-29 15:06:18 184 201 6685 197 1 CLIMBING
2019-08-29 15:07:18 186 205 7189 200 0 CLIMBING
2019-08-29 15:08:18 186 207 7690 203 0 CLIMBING
2019-08-29 15:09:18 186 208 8191 207 -1 CLIMBING
2019-08-29 15:10:18 186 209 8693 210 -2 CLIMBING
2019-08-29 15:11:18 185 210 9184 214 -3 CLIMBING
2019-08-29 15:12:18 184 210 9692 217 -4 CLIMBING
2019-08-29 15:13:18 183 211 10193 221 -5 CLIMBING
2019-08-29 15:14:18 182 211 10691 224 -6 CLIMBING
2019-08-29 15:15:18 168 196 10968 226 -6 CLIMBING
2019-08-29 15:16:18 194 223 9984 228 -4 DESCEND
2019-08-29 15:17:18 203 229 9006 230 -2 DESCEND
2019-08-29 15:18:18 197 219 8005 232 0 DESCEND
2019-08-29 15:19:18 167 185 7406 233 0 DESCEND
2019-08-29 15:20:18 162 178 6902 234 1 DESCEND
2019-08-29 15:21:18 179 195 6420 236 2 DESCEND
2019-08-29 15:22:18 186 202 5927 239 3 DESCEND
2019-08-29 15:23:18 178 191 5420 240 4 DESCEND
2019-08-29 15:24:18 149 159 5035 242 5 DESCEND
2019-08-29 15:25:18 116 125 5200 245 4 CRUISE
2019-08-29 15:26:18 131 138 3841 247 7 DESCEND
2019-08-29 15:27:18 124 128 2371 249 10 DESCEND
2019-08-29 15:28:18 60 62 1872 250 11 LANDED
2019-08-29 15:29:18 16 16 1872 251 11 TAXI TO THE GATE
2019-08-29 15:30:18 0 0 1872 251 11 TAXI TO THE GATE
2019-08-29 15:31:18 19 20 1872 252 11 TAXI TO THE GATE
2019-08-29 15:32:18 18 19 1872 253 11 TAXI TO THE GATE
2019-08-29 15:33:18 12 13 1872 253 11 TAXI TO THE GATE
2019-08-29 15:34:18 0 0 1872 254 11 TAXI TO THE GATE
2019-08-29 15:35:18 0 0 1872 254 11 TAXI TO THE GATE